createdAt,value
2022-08-04T00:00:07.176Z,23.74
2022-08-04T00:03:11.426Z,23.70
2022-08-04T00:05:59.585Z,23.60
2022-08-04T00:08:41.876Z,23.57
2022-08-04T00:11:15.329Z,23.51
2022-08-04T00:13:54.235Z,23.45
2022-08-04T00:16:41.217Z,23.47
2022-08-04T00:19:24.526Z,23.42
2022-08-04T00:22:03.026Z,23.39
2022-08-04T00:24:32.085Z,23.39
2022-08-04T00:26:59.257Z,23.32
2022-08-04T00:29:27.775Z,23.34
2022-08-04T00:31:58.001Z,23.32
2022-08-04T00:34:28.005Z,23.29
2022-08-04T00:36:56.223Z,23.33
2022-08-04T00:39:24.105Z,23.30
2022-08-04T00:41:57.252Z,23.33
2022-08-04T00:44:49.125Z,23.34
2022-08-04T00:47:46.875Z,23.36
2022-08-04T00:50:39.815Z,23.42
2022-08-04T00:53:13.497Z,23.41
2022-08-04T00:56:10.505Z,23.44
2022-08-04T00:59:10.666Z,23.41
2022-08-04T01:01:59.387Z,23.44
2022-08-04T01:05:06.356Z,23.36
2022-08-04T01:07:45.395Z,23.34
2022-08-04T01:10:38.206Z,23.27
2022-08-04T01:13:23.416Z,23.29
2022-08-04T01:16:01.023Z,23.28
2022-08-04T01:18:37.411Z,23.25
2022-08-04T01:21:16.245Z,23.21
2022-08-04T01:24:02.125Z,23.21
2022-08-04T01:26:57.388Z,23.16
2022-08-04T01:29:43.751Z,23.11
2022-08-04T01:32:21.010Z,23.08
2022-08-04T01:35:05.635Z,23.12
2022-08-04T01:37:48.045Z,23.09
2022-08-04T01:40:16.131Z,23.13
2022-08-04T01:42:43.695Z,23.11
2022-08-04T01:45:12.698Z,23.01
2022-08-04T01:47:49.512Z,22.98
2022-08-04T01:50:16.632Z,22.90
2022-08-04T01:52:50.356Z,22.84
2022-08-04T01:55:18.901Z,22.79
2022-08-04T01:57:51.045Z,22.77
2022-08-04T02:00:21.026Z,22.68
2022-08-04T02:02:48.327Z,22.62
2022-08-04T02:05:17.245Z,22.55
2022-08-04T02:07:47.067Z,22.49
2022-08-04T02:10:51.096Z,22.46
2022-08-04T02:13:54.216Z,22.39
2022-08-04T02:16:40.929Z,22.36
2022-08-04T02:19:33.634Z,22.28
2022-08-04T02:22:09.593Z,22.24
2022-08-04T02:24:49.549Z,22.23
2022-08-04T02:27:20.570Z,22.27
2022-08-04T02:29:54.765Z,22.24
2022-08-04T02:32:30.606Z,22.28
2022-08-04T02:35:30.604Z,22.22
2022-08-04T02:38:17.065Z,22.22
2022-08-04T02:40:56.509Z,22.13
2022-08-04T02:43:51.931Z,22.08
2022-08-04T02:46:18.865Z,22.09
2022-08-04T02:48:51.275Z,22.11
2022-08-04T02:51:23.764Z,22.07
2022-08-04T02:53:54.753Z,22.05
2022-08-04T02:56:24.087Z,21.98
2022-08-04T02:58:59.057Z,22.00
2022-08-04T03:01:27.070Z,21.99
2022-08-04T03:04:00.046Z,21.95
2022-08-04T03:06:36.193Z,21.91
2022-08-04T03:09:49.285Z,21.87
2022-08-04T03:12:58.945Z,21.84
2022-08-04T03:15:44.415Z,21.84
2022-08-04T03:18:30.225Z,21.84
2022-08-04T03:21:28.205Z,21.78
2022-08-04T03:24:32.376Z,21.77
2022-08-04T03:27:14.465Z,21.72
2022-08-04T03:30:02.993Z,21.65
2022-08-04T03:32:57.946Z,21.68
2022-08-04T03:35:37.276Z,21.69
2022-08-04T03:38:34.876Z,21.72
2022-08-04T03:41:58.204Z,21.69
2022-08-04T03:44:48.344Z,21.57
2022-08-04T03:47:21.253Z,21.57
2022-08-04T03:50:23.143Z,21.55
2022-08-04T03:53:11.607Z,21.58
2022-08-04T03:56:00.527Z,21.59
2022-08-04T03:59:07.525Z,21.63
2022-08-04T04:02:06.742Z,21.63
2022-08-04T04:04:49.065Z,21.57
2022-08-04T04:07:40.815Z,21.41
2022-08-04T04:10:28.917Z,21.53
2022-08-04T04:13:14.565Z,21.58
2022-08-04T04:16:11.255Z,21.66
2022-08-04T04:19:15.654Z,21.57
2022-08-04T04:22:07.982Z,21.44
2022-08-04T04:24:37.973Z,21.45
2022-08-04T04:27:07.729Z,21.48
2022-08-04T04:30:07.400Z,21.58
2022-08-04T04:32:59.004Z,21.72
2022-08-04T04:35:50.784Z,21.77
2022-08-04T04:39:01.716Z,21.82
2022-08-04T04:41:57.564Z,21.90
2022-08-04T04:44:57.294Z,22.10
2022-08-04T04:47:43.209Z,22.21
2022-08-04T04:50:38.144Z,22.33
2022-08-04T04:53:13.794Z,22.49
2022-08-04T04:55:48.507Z,22.66
2022-08-04T04:58:19.144Z,22.79
2022-08-04T05:01:13.845Z,22.94
2022-08-04T05:04:11.945Z,23.07
2022-08-04T05:07:10.385Z,23.21
2022-08-04T05:09:48.353Z,23.28
2022-08-04T05:12:59.211Z,23.38
2022-08-04T05:15:15.395Z,23.51
2022-08-04T05:17:49.744Z,23.57
2022-08-04T05:20:30.385Z,23.67
2022-08-04T05:23:02.524Z,23.78
2022-08-04T05:25:35.685Z,23.86
2022-08-04T05:28:02.645Z,23.93
2022-08-04T05:30:34.286Z,24.02
2022-08-04T05:33:05.053Z,24.11
2022-08-04T05:35:52.985Z,24.13
2022-08-04T05:38:30.195Z,24.13
2022-08-04T05:40:58.125Z,24.19
2022-08-04T05:43:26.546Z,24.26
2022-08-04T05:45:54.537Z,24.36
2022-08-04T05:48:21.463Z,24.39
2022-08-04T05:50:49.404Z,24.51
2022-08-04T05:53:18.185Z,24.60
2022-08-04T05:55:57.415Z,24.72
2022-08-04T05:58:29.736Z,24.79
2022-08-04T06:00:58.922Z,24.90
2022-08-04T06:03:27.584Z,24.98
2022-08-04T06:05:55.124Z,25.10
2022-08-04T06:08:22.323Z,25.19
2022-08-04T06:10:51.375Z,25.30
2022-08-04T06:13:45.329Z,25.46
2022-08-04T06:16:29.331Z,25.56
2022-08-04T06:20:00.736Z,25.68
2022-08-04T06:21:51.225Z,25.77
2022-08-04T06:24:21.203Z,25.87
2022-08-04T06:26:50.284Z,25.97
2022-08-04T06:29:36.000Z,25.93
2022-08-04T06:32:31.058Z,26.01
2022-08-04T06:35:04.065Z,26.05
2022-08-04T06:37:42.130Z,26.06
2022-08-04T06:40:29.507Z,26.13
2022-08-04T06:43:00.904Z,26.20
2022-08-04T06:45:29.063Z,26.27
2022-08-04T06:47:56.716Z,26.36
2022-08-04T06:51:25.473Z,26.43
2022-08-04T06:53:12.384Z,26.55
2022-08-04T06:55:42.985Z,26.65
2022-08-04T06:58:10.805Z,26.64
2022-08-04T07:00:39.505Z,26.77
2022-08-04T07:03:10.204Z,26.86
2022-08-04T07:05:38.063Z,26.98
2022-08-04T07:08:05.625Z,27.04
2022-08-04T07:10:33.147Z,27.09
2022-08-04T07:13:01.719Z,27.23
2022-08-04T07:15:29.254Z,27.30
2022-08-04T07:18:02.092Z,27.38
2022-08-04T07:20:35.266Z,27.49
2022-08-04T07:23:08.384Z,27.57
2022-08-04T07:26:10.783Z,27.64
2022-08-04T07:28:28.466Z,27.75
2022-08-04T07:30:57.246Z,27.81
2022-08-04T07:33:26.050Z,27.84
2022-08-04T07:36:09.243Z,27.97
2022-08-04T07:38:48.673Z,28.05
2022-08-04T07:41:40.710Z,28.16
2022-08-04T07:44:09.168Z,28.24
2022-08-04T07:46:37.043Z,28.30
2022-08-04T07:49:05.556Z,28.36
2022-08-04T07:51:35.500Z,28.42
2022-08-04T07:54:05.447Z,28.49
2022-08-04T07:56:34.426Z,28.44
2022-08-04T07:59:01.856Z,28.60
2022-08-04T08:01:29.456Z,28.60
2022-08-04T08:03:58.267Z,28.68
2022-08-04T08:06:32.624Z,28.71
2022-08-04T08:09:12.678Z,28.84
2022-08-04T08:12:35.762Z,28.89
2022-08-04T08:14:35.726Z,28.99
2022-08-04T08:17:03.670Z,29.01
2022-08-04T08:19:31.566Z,29.14
2022-08-04T08:22:00.783Z,29.17
2022-08-04T08:24:30.188Z,29.26
2022-08-04T08:26:58.164Z,29.31
2022-08-04T08:29:26.841Z,29.38
2022-08-04T08:31:56.184Z,29.51
2022-08-04T08:34:29.127Z,29.60
2022-08-04T08:37:16.484Z,29.69
2022-08-04T08:39:54.498Z,29.77
2022-08-04T08:42:34.076Z,29.87
2022-08-04T08:45:01.014Z,29.94
2022-08-04T08:47:58.432Z,30.07
2022-08-04T08:51:06.224Z,30.19
2022-08-04T08:54:11.325Z,30.26
2022-08-04T08:56:53.626Z,30.33
2022-08-04T08:59:59.184Z,30.38
2022-08-04T09:03:04.658Z,30.55
2022-08-04T09:05:38.705Z,30.71
2022-08-04T09:08:24.384Z,30.78
2022-08-04T09:10:59.117Z,30.89
2022-08-04T09:13:27.883Z,31.03
2022-08-04T09:16:17.483Z,31.08
2022-08-04T09:19:00.832Z,31.16
2022-08-04T09:21:48.524Z,31.23
2022-08-04T09:24:41.444Z,31.33
2022-08-04T09:27:34.832Z,31.54
2022-08-04T09:30:06.223Z,31.67
2022-08-04T09:32:38.964Z,31.85
2022-08-04T09:35:32.205Z,32.01
2022-08-04T09:38:36.293Z,32.21
2022-08-04T09:41:49.046Z,32.30
2022-08-04T09:44:51.335Z,32.50
2022-08-04T09:47:43.937Z,32.64
2022-08-04T09:50:17.084Z,32.73
2022-08-04T09:53:08.624Z,32.77
2022-08-04T09:55:53.185Z,32.78
2022-08-04T09:58:34.246Z,32.83
2022-08-04T10:01:06.531Z,33.07
2022-08-04T10:03:37.189Z,33.24
2022-08-04T10:06:19.490Z,33.34
2022-08-04T10:09:21.366Z,33.44
2022-08-04T10:11:57.684Z,33.47
2022-08-04T10:14:53.748Z,33.49
2022-08-04T10:17:52.062Z,33.45
2022-08-04T10:20:47.583Z,33.56
2022-08-04T10:23:26.203Z,33.89
2022-08-04T10:26:26.854Z,33.99
2022-08-04T10:29:19.058Z,34.13
2022-08-04T10:31:57.586Z,34.19
2022-08-04T10:34:29.904Z,34.38
2022-08-04T10:36:59.784Z,34.41
2022-08-04T10:39:44.527Z,34.42
2022-08-04T10:42:31.025Z,34.52
2022-08-04T10:45:20.234Z,34.44
2022-08-04T10:47:59.432Z,34.49
2022-08-04T10:50:29.544Z,34.65
2022-08-04T10:53:07.830Z,34.86
2022-08-04T10:56:18.453Z,35.00
2022-08-04T10:59:17.086Z,35.11
2022-08-04T11:13:29.462Z,34.79
2022-08-04T11:16:02.774Z,34.80
2022-08-04T11:18:43.755Z,34.99
2022-08-04T11:21:29.086Z,35.15
2022-08-04T11:24:19.744Z,35.26
2022-08-04T11:26:58.665Z,35.44
2022-08-04T11:29:37.625Z,35.66
2022-08-04T11:32:09.225Z,35.74
2022-08-04T11:34:38.904Z,36.01
2022-08-04T11:37:41.587Z,36.19
2022-08-04T11:40:33.587Z,36.45
2022-08-04T11:43:10.055Z,36.78
2022-08-04T11:45:47.544Z,36.96
2022-08-04T11:48:20.326Z,37.20
2022-08-04T11:50:54.113Z,37.27
2022-08-04T11:53:26.205Z,37.34
2022-08-04T11:56:07.526Z,37.48
2022-08-04T11:58:37.309Z,37.78
2022-08-04T12:01:09.064Z,37.92
2022-08-04T12:04:09.955Z,38.08
2022-08-04T12:06:56.685Z,38.41
2022-08-04T12:09:47.345Z,38.61
2022-08-04T12:12:35.286Z,38.61
2022-08-04T12:15:30.933Z,38.52
2022-08-04T12:18:04.805Z,38.48
2022-08-04T12:20:43.550Z,38.49
2022-08-04T12:23:36.975Z,38.63
2022-08-04T12:26:08.913Z,38.65
2022-08-04T12:29:09.212Z,38.57
2022-08-04T12:31:28.305Z,38.26
2022-08-04T12:34:32.753Z,38.54
2022-08-04T12:37:13.026Z,38.50
2022-08-04T12:40:27.794Z,38.77
2022-08-04T12:42:56.106Z,38.81
2022-08-04T12:45:27.386Z,38.86
2022-08-04T12:47:58.284Z,39.03
2022-08-04T12:50:25.784Z,39.14
2022-08-04T12:53:04.549Z,39.18
2022-08-04T12:55:34.391Z,39.30
2022-08-04T12:58:16.089Z,39.29
2022-08-04T13:00:48.441Z,39.21
2022-08-04T13:03:18.134Z,39.18
2022-08-04T13:05:45.768Z,39.15
2022-08-04T13:08:14.173Z,39.20
2022-08-04T13:10:46.141Z,39.26
2022-08-04T13:13:25.904Z,39.37
2022-08-04T13:16:01.692Z,39.37
2022-08-04T13:18:32.367Z,39.49
2022-08-04T13:21:20.381Z,39.54
2022-08-04T13:24:19.672Z,39.77
2022-08-04T13:27:10.930Z,39.77
2022-08-04T13:29:59.594Z,39.88
2022-08-04T13:32:30.839Z,39.91
2022-08-04T13:35:00.428Z,39.95
2022-08-04T13:37:36.253Z,39.67
2022-08-04T13:40:10.256Z,40.05
2022-08-04T13:42:39.148Z,40.30
2022-08-04T13:45:08.494Z,40.41
2022-08-04T13:47:38.869Z,40.49
2022-08-04T13:50:30.419Z,40.44
2022-08-04T13:53:00.425Z,40.53
2022-08-04T13:55:34.407Z,40.68
2022-08-04T13:58:23.985Z,40.84
2022-08-04T14:01:16.159Z,40.86
2022-08-04T14:03:54.094Z,40.74
2022-08-04T14:06:29.787Z,40.48
2022-08-04T14:09:00.114Z,40.44
2022-08-04T14:12:09.268Z,40.29
2022-08-04T14:14:31.064Z,40.19
2022-08-04T14:17:19.920Z,40.24
2022-08-04T14:19:47.890Z,40.25
2022-08-04T14:22:27.443Z,40.19
2022-08-04T14:24:57.695Z,40.02
2022-08-04T14:27:25.291Z,39.91
2022-08-04T14:29:52.548Z,40.02
2022-08-04T14:32:21.546Z,39.41
2022-08-04T14:34:52.768Z,39.83
2022-08-04T14:37:20.859Z,39.87
2022-08-04T14:40:17.919Z,39.84
2022-08-04T14:42:44.214Z,39.65
2022-08-04T14:45:12.348Z,39.77
2022-08-04T14:47:52.729Z,39.66
2022-08-04T14:50:21.065Z,39.74
2022-08-04T14:52:48.056Z,39.72
2022-08-04T14:55:24.064Z,39.65
2022-08-04T14:58:36.283Z,39.44
2022-08-04T15:00:39.661Z,39.76
2022-08-04T15:03:10.094Z,39.74
2022-08-04T15:06:01.700Z,39.63
2022-08-04T15:08:31.242Z,39.50
2022-08-04T15:11:02.665Z,39.36
2022-08-04T15:13:32.465Z,39.08
2022-08-04T15:16:06.191Z,39.04
2022-08-04T15:18:39.318Z,38.88
2022-08-04T15:21:08.011Z,38.68
2022-08-04T15:23:39.587Z,38.64
2022-08-04T15:26:13.920Z,38.45
2022-08-04T15:28:53.357Z,38.49
2022-08-04T15:32:04.488Z,38.43
2022-08-04T15:34:13.025Z,38.39
2022-08-04T15:36:56.652Z,38.27
2022-08-04T15:39:53.285Z,37.99
2022-08-04T15:42:42.665Z,38.13
2022-08-04T15:45:20.906Z,38.04
2022-08-04T15:48:03.022Z,37.85
2022-08-04T15:50:31.137Z,37.85
2022-08-04T15:53:10.848Z,37.82
2022-08-04T15:55:44.362Z,37.81
2022-08-04T15:58:13.377Z,37.72
2022-08-04T16:00:54.263Z,37.86
2022-08-04T16:03:58.390Z,37.72
2022-08-04T16:06:29.009Z,37.57
2022-08-04T16:09:02.454Z,37.37
2022-08-04T16:11:31.392Z,37.11
2022-08-04T16:13:58.936Z,36.90
2022-08-04T16:16:47.137Z,36.87
2022-08-04T16:19:23.244Z,36.79
2022-08-04T16:21:51.784Z,36.62
2022-08-04T16:24:32.119Z,36.41
2022-08-04T16:27:01.052Z,36.12
2022-08-04T16:29:36.843Z,35.91
2022-08-04T16:32:12.870Z,35.70
2022-08-04T16:35:04.357Z,35.40
2022-08-04T16:37:32.790Z,35.27
2022-08-04T16:40:35.902Z,35.08
2022-08-04T16:43:08.324Z,34.85
2022-08-04T16:45:48.689Z,34.68
2022-08-04T16:48:21.695Z,34.55
2022-08-04T16:50:50.024Z,34.43
2022-08-04T16:54:02.714Z,34.26
2022-08-04T16:56:09.145Z,34.11
2022-08-04T16:58:37.037Z,34.00
2022-08-04T17:01:21.801Z,33.80
2022-08-04T17:04:05.324Z,33.66
2022-08-04T17:06:41.196Z,33.49
2022-08-04T17:09:17.312Z,33.41
2022-08-04T17:11:46.739Z,33.27
2022-08-04T17:14:14.167Z,33.17
2022-08-04T17:16:43.136Z,32.97
2022-08-04T17:19:24.039Z,32.89
2022-08-04T17:22:02.207Z,32.78
2022-08-04T17:24:31.249Z,32.70
2022-08-04T17:26:58.977Z,32.61
2022-08-04T17:29:44.519Z,32.53
2022-08-04T17:32:21.865Z,32.41
2022-08-04T17:34:51.430Z,32.32
2022-08-04T17:37:38.947Z,32.24
2022-08-04T17:40:10.172Z,32.17
2022-08-04T17:42:39.945Z,32.06
2022-08-04T17:48:00.217Z,32.00
2022-08-04T17:50:36.003Z,31.95
2022-08-04T17:53:11.988Z,31.96
2022-08-04T17:55:40.647Z,31.93
2022-08-04T17:58:33.933Z,31.84
2022-08-04T18:01:23.520Z,31.76
2022-08-04T18:03:51.675Z,31.69
2022-08-04T18:06:20.321Z,31.61
2022-08-04T18:08:57.472Z,31.53
2022-08-04T18:11:29.935Z,31.46
2022-08-04T18:14:10.552Z,31.37
2022-08-04T18:16:46.990Z,31.27
2022-08-04T18:19:18.987Z,31.16
2022-08-04T18:22:00.127Z,31.04
2022-08-04T18:24:56.114Z,30.99
2022-08-04T18:27:25.642Z,30.87
2022-08-04T18:30:31.044Z,30.79
2022-08-04T18:33:04.295Z,30.73
2022-08-04T18:36:31.448Z,30.67
2022-08-04T18:38:22.345Z,30.55
2022-08-04T18:40:52.942Z,30.48
2022-08-04T18:43:28.164Z,30.44
2022-08-04T18:45:59.577Z,30.33
2022-08-04T18:48:36.845Z,30.27
2022-08-04T18:53:58.540Z,30.10
2022-08-04T18:56:29.729Z,30.00
2022-08-04T18:59:04.798Z,29.94
2022-08-04T19:02:12.886Z,29.87
2022-08-04T19:04:33.724Z,29.79
2022-08-04T19:07:28.879Z,29.71
2022-08-04T19:09:58.148Z,29.66
2022-08-04T19:12:27.424Z,29.54
2022-08-04T19:14:58.063Z,29.48
2022-08-04T19:17:57.026Z,29.39
2022-08-04T19:24:28.870Z,29.26
2022-08-04T19:26:08.234Z,29.17
2022-08-04T19:28:39.045Z,29.10
2022-08-04T19:31:08.599Z,29.03
2022-08-04T19:33:58.866Z,29.01
2022-08-04T19:36:27.821Z,28.94
2022-08-04T19:39:00.550Z,28.88
2022-08-04T19:41:31.172Z,28.84
2022-08-04T19:43:58.477Z,28.80
2022-08-04T19:50:03.873Z,28.67
2022-08-04T19:52:04.807Z,28.64
2022-08-04T19:54:32.512Z,28.63
2022-08-04T19:56:59.586Z,28.62
2022-08-04T19:59:27.125Z,28.53
2022-08-04T20:01:59.454Z,28.50
2022-08-04T20:04:28.086Z,28.49
2022-08-04T20:06:58.358Z,28.47
2022-08-04T20:09:27.154Z,28.39
2022-08-04T20:11:57.821Z,28.39
2022-08-04T20:14:32.511Z,28.38
2022-08-04T20:17:10.319Z,28.36
2022-08-04T20:19:39.046Z,28.33
2022-08-04T20:22:50.912Z,28.26
2022-08-04T20:25:00.994Z,28.26
2022-08-04T20:27:59.236Z,28.19
2022-08-04T20:30:28.434Z,28.16
2022-08-04T20:32:55.785Z,28.17
2022-08-04T20:35:28.965Z,28.13
2022-08-04T20:38:00.235Z,28.14
2022-08-04T20:40:29.194Z,28.13
2022-08-04T20:42:58.287Z,28.12
2022-08-04T20:45:55.683Z,28.08
2022-08-04T20:48:13.005Z,28.03
2022-08-04T20:50:40.226Z,27.98
2022-08-04T20:53:16.262Z,27.99
2022-08-04T20:55:55.527Z,27.98
2022-08-04T20:58:27.427Z,27.95
2022-08-04T21:00:55.464Z,27.92
2022-08-04T21:03:49.366Z,27.87
2022-08-04T21:06:10.218Z,27.83
2022-08-04T21:08:37.421Z,27.84
2022-08-04T21:11:06.951Z,27.83
2022-08-04T21:13:50.621Z,27.81
2022-08-04T21:16:53.710Z,27.80
2022-08-04T21:19:12.958Z,27.73
2022-08-04T21:21:54.509Z,27.68
2022-08-04T21:24:26.051Z,27.63
2022-08-04T21:26:56.638Z,27.60
2022-08-04T21:29:34.986Z,27.55
2022-08-04T21:32:05.881Z,27.48
2022-08-04T21:34:39.674Z,27.39
2022-08-04T21:37:09.887Z,27.36
2022-08-04T21:39:50.986Z,27.33
2022-08-04T21:42:28.049Z,27.29
2022-08-04T21:45:10.213Z,27.23
2022-08-04T21:47:46.568Z,27.28
2022-08-04T21:50:19.783Z,27.22
2022-08-04T21:52:49.228Z,27.23
2022-08-04T21:55:17.049Z,27.21
2022-08-04T21:57:46.144Z,27.12
2022-08-04T22:00:18.406Z,27.02
2022-08-04T22:02:53.170Z,26.99
2022-08-04T22:05:21.617Z,26.97
2022-08-04T22:07:50.753Z,26.95
2022-08-04T22:10:32.182Z,26.87
2022-08-04T22:13:03.001Z,26.82
2022-08-04T22:16:03.759Z,26.79
2022-08-04T22:18:24.372Z,26.75
2022-08-04T22:20:54.357Z,26.74
2022-08-04T22:23:25.246Z,26.73
2022-08-04T22:25:53.620Z,26.70
2022-08-04T22:28:27.119Z,26.65
2022-08-04T22:30:56.800Z,26.63
2022-08-04T22:33:23.982Z,26.66
2022-08-04T22:36:13.612Z,26.63
2022-08-04T22:38:48.840Z,26.64
2022-08-04T22:41:20.774Z,26.64
2022-08-04T22:43:54.809Z,26.58
2022-08-04T22:46:26.013Z,26.54
2022-08-04T22:48:54.053Z,26.47
2022-08-04T22:51:22.478Z,26.46
2022-08-04T22:53:51.935Z,26.48
2022-08-04T22:56:38.032Z,26.44
2022-08-04T22:59:10.023Z,26.42
2022-08-04T23:01:59.242Z,26.43
2022-08-04T23:04:26.102Z,26.35
2022-08-04T23:06:54.948Z,26.25
2022-08-04T23:09:48.848Z,26.26
2022-08-04T23:12:24.277Z,26.19
2022-08-04T23:14:54.865Z,26.16
2022-08-04T23:17:22.841Z,26.11
2022-08-04T23:19:57.376Z,26.06
2022-08-04T23:22:36.977Z,25.99
2022-08-04T23:25:16.561Z,25.97
2022-08-04T23:27:51.463Z,25.87
2022-08-04T23:30:24.906Z,25.79
2022-08-04T23:32:57.583Z,25.77
2022-08-04T23:35:24.889Z,25.69
2022-08-04T23:37:57.344Z,25.62
2022-08-04T23:40:32.642Z,25.62
2022-08-04T23:43:17.257Z,25.58
2022-08-04T23:46:04.042Z,25.52
2022-08-04T23:48:34.377Z,25.56
2022-08-04T23:51:14.103Z,25.52
2022-08-04T23:54:02.542Z,25.52
2022-08-04T23:56:34.911Z,25.50
2022-08-04T23:59:03.791Z,25.51
